sensor_id;sensor_type;location;lat;lon;timestamp;P1;durP1;ratioP1;P2;durP2;ratioP2
42244;SDS011;27912;51.828;5.688;2023-02-02T00:02:00;13.35;;;1.08;;
42244;SDS011;27912;51.828;5.688;2023-02-02T00:06:53;18.02;;;1.63;;
42244;SDS011;27912;51.828;5.688;2023-02-02T00:09:21;13.45;;;1.85;;
42244;SDS011;27912;51.828;5.688;2023-02-02T00:11:47;18.63;;;1.92;;
42244;SDS011;27912;51.828;5.688;2023-02-02T00:14:15;17.67;;;1.98;;
42244;SDS011;27912;51.828;5.688;2023-02-02T00:19:12;16.02;;;2.63;;
42244;SDS011;27912;51.828;5.688;2023-02-02T00:21:46;12.18;;;1.52;;
42244;SDS011;27912;51.828;5.688;2023-02-02T00:24:12;12.48;;;1.30;;
42244;SDS011;27912;51.828;5.688;2023-02-02T00:26:40;14.85;;;2.40;;
42244;SDS011;27912;51.828;5.688;2023-02-02T00:29:07;15.88;;;1.95;;
42244;SDS011;27912;51.828;5.688;2023-02-02T00:31:37;24.70;;;2.13;;
42244;SDS011;27912;51.828;5.688;2023-02-02T00:34:03;9.48;;;1.85;;
42244;SDS011;27912;51.828;5.688;2023-02-02T00:36:29;20.30;;;2.22;;
42244;SDS011;27912;51.828;5.688;2023-02-02T00:38:54;17.60;;;1.58;;
42244;SDS011;27912;51.828;5.688;2023-02-02T00:41:20;19.75;;;1.88;;
42244;SDS011;27912;51.828;5.688;2023-02-02T00:43:45;16.88;;;2.50;;
42244;SDS011;27912;51.828;5.688;2023-02-02T00:46:31;18.52;;;1.92;;
42244;SDS011;27912;51.828;5.688;2023-02-02T00:48:56;16.17;;;1.73;;
42244;SDS011;27912;51.828;5.688;2023-02-02T00:51:22;7.03;;;0.50;;
42244;SDS011;27912;51.828;5.688;2023-02-02T00:53:47;9.57;;;0.70;;
42244;SDS011;27912;51.828;5.688;2023-02-02T00:56:13;11.35;;;0.88;;
42244;SDS011;27912;51.828;5.688;2023-02-02T00:58:38;10.45;;;0.95;;
42244;SDS011;27912;51.828;5.688;2023-02-02T01:01:04;11.48;;;1.00;;
42244;SDS011;27912;51.828;5.688;2023-02-02T01:03:29;8.07;;;1.02;;
42244;SDS011;27912;51.828;5.688;2023-02-02T01:05:55;14.20;;;1.05;;
42244;SDS011;27912;51.828;5.688;2023-02-02T01:08:20;9.02;;;1.00;;
42244;SDS011;27912;51.828;5.688;2023-02-02T01:10:46;12.07;;;1.23;;
42244;SDS011;27912;51.828;5.688;2023-02-02T01:13:12;12.40;;;1.27;;
42244;SDS011;27912;51.828;5.688;2023-02-02T01:15:37;12.13;;;1.42;;
42244;SDS011;27912;51.828;5.688;2023-02-02T01:18:03;14.85;;;1.25;;
42244;SDS011;27912;51.828;5.688;2023-02-02T01:20:28;19.25;;;1.60;;
42244;SDS011;27912;51.828;5.688;2023-02-02T01:22:55;16.25;;;1.52;;
42244;SDS011;27912;51.828;5.688;2023-02-02T01:25:21;20.13;;;1.80;;
42244;SDS011;27912;51.828;5.688;2023-02-02T01:27:46;22.60;;;1.83;;
42244;SDS011;27912;51.828;5.688;2023-02-02T01:30:12;20.98;;;2.67;;
42244;SDS011;27912;51.828;5.688;2023-02-02T01:32:39;17.40;;;2.05;;
42244;SDS011;27912;51.828;5.688;2023-02-02T01:35:04;13.88;;;2.38;;
42244;SDS011;27912;51.828;5.688;2023-02-02T01:37:30;22.05;;;2.58;;
42244;SDS011;27912;51.828;5.688;2023-02-02T01:39:56;16.75;;;1.88;;
42244;SDS011;27912;51.828;5.688;2023-02-02T01:42:21;21.67;;;2.15;;
42244;SDS011;27912;51.828;5.688;2023-02-02T01:45:03;18.33;;;1.55;;
42244;SDS011;27912;51.828;5.688;2023-02-02T01:47:32;15.60;;;2.08;;
42244;SDS011;27912;51.828;5.688;2023-02-02T01:50:01;14.25;;;1.55;;
42244;SDS011;27912;51.828;5.688;2023-02-02T01:52:28;16.20;;;1.83;;
42244;SDS011;27912;51.828;5.688;2023-02-02T01:54:58;14.18;;;1.70;;
42244;SDS011;27912;51.828;5.688;2023-02-02T01:57:38;19.47;;;2.17;;
42244;SDS011;27912;51.828;5.688;2023-02-02T02:00:09;15.45;;;1.83;;
42244;SDS011;27912;51.828;5.688;2023-02-02T02:02:38;12.35;;;2.25;;
42244;SDS011;27912;51.828;5.688;2023-02-02T02:05:05;20.60;;;1.70;;
42244;SDS011;27912;51.828;5.688;2023-02-02T02:07:31;17.10;;;1.75;;
42244;SDS011;27912;51.828;5.688;2023-02-02T02:09:57;12.82;;;1.60;;
42244;SDS011;27912;51.828;5.688;2023-02-02T02:12:23;11.73;;;1.85;;
42244;SDS011;27912;51.828;5.688;2023-02-02T02:14:49;11.95;;;1.15;;
42244;SDS011;27912;51.828;5.688;2023-02-02T02:17:56;8.02;;;1.20;;
42244;SDS011;27912;51.828;5.688;2023-02-02T02:21:34;12.30;;;1.20;;
42244;SDS011;27912;51.828;5.688;2023-02-02T02:27:33;12.63;;;1.52;;
42244;SDS011;27912;51.828;5.688;2023-02-02T02:30:06;14.85;;;1.83;;
42244;SDS011;27912;51.828;5.688;2023-02-02T02:38:10;13.00;;;2.47;;
42244;SDS011;27912;51.828;5.688;2023-02-02T02:41:02;12.85;;;2.33;;
42244;SDS011;27912;51.828;5.688;2023-02-02T02:43:37;13.77;;;2.03;;
42244;SDS011;27912;51.828;5.688;2023-02-02T02:46:06;12.68;;;2.05;;
42244;SDS011;27912;51.828;5.688;2023-02-02T02:48:32;15.85;;;2.47;;
42244;SDS011;27912;51.828;5.688;2023-02-02T02:51:07;9.32;;;1.90;;
42244;SDS011;27912;51.828;5.688;2023-02-02T02:53:53;16.42;;;2.45;;
42244;SDS011;27912;51.828;5.688;2023-02-02T02:56:23;15.02;;;1.95;;
42244;SDS011;27912;51.828;5.688;2023-02-02T02:59:05;12.65;;;2.30;;
42244;SDS011;27912;51.828;5.688;2023-02-02T03:02:23;13.13;;;1.67;;
42244;SDS011;27912;51.828;5.688;2023-02-02T03:07:37;22.83;;;1.75;;
42244;SDS011;27912;51.828;5.688;2023-02-02T03:10:11;14.82;;;1.02;;
42244;SDS011;27912;51.828;5.688;2023-02-02T03:12:46;17.17;;;1.67;;
42244;SDS011;27912;51.828;5.688;2023-02-02T03:15:13;25.45;;;2.22;;
42244;SDS011;27912;51.828;5.688;2023-02-02T03:17:40;19.60;;;1.98;;
42244;SDS011;27912;51.828;5.688;2023-02-02T03:20:07;16.55;;;1.85;;
42244;SDS011;27912;51.828;5.688;2023-02-02T03:22:33;22.50;;;2.67;;
42244;SDS011;27912;51.828;5.688;2023-02-02T03:24:59;15.10;;;1.80;;
42244;SDS011;27912;51.828;5.688;2023-02-02T03:27:24;17.98;;;2.22;;
42244;SDS011;27912;51.828;5.688;2023-02-02T03:29:51;11.75;;;1.00;;
42244;SDS011;27912;51.828;5.688;2023-02-02T03:32:16;12.70;;;1.30;;
42244;SDS011;27912;51.828;5.688;2023-02-02T03:34:42;21.15;;;1.80;;
42244;SDS011;27912;51.828;5.688;2023-02-02T03:37:08;11.88;;;1.27;;
42244;SDS011;27912;51.828;5.688;2023-02-02T03:39:33;16.48;;;1.73;;
42244;SDS011;27912;51.828;5.688;2023-02-02T03:41:59;27.45;;;2.08;;
42244;SDS011;27912;51.828;5.688;2023-02-02T03:44:24;13.93;;;1.73;;
42244;SDS011;27912;51.828;5.688;2023-02-02T03:46:53;19.90;;;2.35;;
42244;SDS011;27912;51.828;5.688;2023-02-02T03:49:19;15.43;;;1.70;;
42244;SDS011;27912;51.828;5.688;2023-02-02T03:51:45;18.65;;;1.67;;
42244;SDS011;27912;51.828;5.688;2023-02-02T03:54:10;16.27;;;1.35;;
42244;SDS011;27912;51.828;5.688;2023-02-02T03:56:36;15.57;;;2.00;;
42244;SDS011;27912;51.828;5.688;2023-02-02T03:59:02;19.40;;;1.77;;
42244;SDS011;27912;51.828;5.688;2023-02-02T04:01:28;19.80;;;1.90;;
42244;SDS011;27912;51.828;5.688;2023-02-02T04:03:54;21.83;;;2.22;;
42244;SDS011;27912;51.828;5.688;2023-02-02T04:06:21;15.98;;;1.35;;
42244;SDS011;27912;51.828;5.688;2023-02-02T04:08:47;17.00;;;1.83;;
42244;SDS011;27912;51.828;5.688;2023-02-02T04:11:13;16.85;;;1.50;;
42244;SDS011;27912;51.828;5.688;2023-02-02T04:13:39;22.45;;;1.80;;
42244;SDS011;27912;51.828;5.688;2023-02-02T04:16:07;16.10;;;1.90;;
42244;SDS011;27912;51.828;5.688;2023-02-02T04:18:33;16.08;;;1.73;;
42244;SDS011;27912;51.828;5.688;2023-02-02T04:21:01;17.67;;;2.03;;
42244;SDS011;27912;51.828;5.688;2023-02-02T04:23:28;17.75;;;1.75;;
42244;SDS011;27912;51.828;5.688;2023-02-02T04:25:54;18.75;;;1.75;;
42244;SDS011;27912;51.828;5.688;2023-02-02T04:28:20;12.18;;;1.63;;
42244;SDS011;27912;51.828;5.688;2023-02-02T04:30:47;11.68;;;1.70;;
42244;SDS011;27912;51.828;5.688;2023-02-02T04:33:14;17.13;;;2.80;;
42244;SDS011;27912;51.828;5.688;2023-02-02T04:35:41;22.98;;;2.30;;
42244;SDS011;27912;51.828;5.688;2023-02-02T04:38:07;16.45;;;2.83;;
42244;SDS011;27912;51.828;5.688;2023-02-02T04:40:33;18.95;;;1.73;;
42244;SDS011;27912;51.828;5.688;2023-02-02T04:43:03;19.75;;;3.38;;
42244;SDS011;27912;51.828;5.688;2023-02-02T04:45:28;11.30;;;1.20;;
42244;SDS011;27912;51.828;5.688;2023-02-02T04:47:54;13.95;;;1.58;;
42244;SDS011;27912;51.828;5.688;2023-02-02T04:50:19;13.05;;;1.65;;
42244;SDS011;27912;51.828;5.688;2023-02-02T04:52:45;11.38;;;2.00;;
42244;SDS011;27912;51.828;5.688;2023-02-02T04:55:11;10.35;;;1.50;;
42244;SDS011;27912;51.828;5.688;2023-02-02T04:57:36;15.70;;;1.52;;
42244;SDS011;27912;51.828;5.688;2023-02-02T05:00:02;10.95;;;1.30;;
42244;SDS011;27912;51.828;5.688;2023-02-02T05:02:28;15.57;;;1.90;;
42244;SDS011;27912;51.828;5.688;2023-02-02T05:04:54;20.02;;;1.70;;
42244;SDS011;27912;51.828;5.688;2023-02-02T05:07:19;16.10;;;1.27;;
42244;SDS011;27912;51.828;5.688;2023-02-02T05:09:45;11.80;;;1.02;;
42244;SDS011;27912;51.828;5.688;2023-02-02T05:12:10;16.98;;;1.67;;
42244;SDS011;27912;51.828;5.688;2023-02-02T05:14:36;11.10;;;1.15;;
42244;SDS011;27912;51.828;5.688;2023-02-02T05:17:01;16.05;;;1.60;;
42244;SDS011;27912;51.828;5.688;2023-02-02T05:19:27;17.38;;;1.98;;
42244;SDS011;27912;51.828;5.688;2023-02-02T05:21:52;16.70;;;1.38;;
42244;SDS011;27912;51.828;5.688;2023-02-02T05:24:18;16.65;;;2.08;;
42244;SDS011;27912;51.828;5.688;2023-02-02T05:26:44;16.65;;;1.73;;
42244;SDS011;27912;51.828;5.688;2023-02-02T05:29:10;10.45;;;1.20;;
42244;SDS011;27912;51.828;5.688;2023-02-02T05:31:35;12.85;;;1.05;;
42244;SDS011;27912;51.828;5.688;2023-02-02T05:34:01;7.40;;;1.33;;
42244;SDS011;27912;51.828;5.688;2023-02-02T05:36:27;16.48;;;1.58;;
42244;SDS011;27912;51.828;5.688;2023-02-02T05:38:53;18.13;;;1.85;;
42244;SDS011;27912;51.828;5.688;2023-02-02T05:41:18;16.83;;;1.50;;
42244;SDS011;27912;51.828;5.688;2023-02-02T05:43:44;17.13;;;2.17;;
42244;SDS011;27912;51.828;5.688;2023-02-02T05:46:10;16.90;;;1.42;;
42244;SDS011;27912;51.828;5.688;2023-02-02T05:48:36;20.50;;;1.38;;
42244;SDS011;27912;51.828;5.688;2023-02-02T05:51:03;17.08;;;1.83;;
42244;SDS011;27912;51.828;5.688;2023-02-02T05:53:31;15.15;;;1.88;;
42244;SDS011;27912;51.828;5.688;2023-02-02T05:55:57;15.20;;;1.67;;
42244;SDS011;27912;51.828;5.688;2023-02-02T05:58:23;13.80;;;1.08;;
42244;SDS011;27912;51.828;5.688;2023-02-02T06:00:48;14.85;;;1.33;;
42244;SDS011;27912;51.828;5.688;2023-02-02T06:03:14;12.05;;;1.35;;
42244;SDS011;27912;51.828;5.688;2023-02-02T06:05:39;15.90;;;1.80;;
42244;SDS011;27912;51.828;5.688;2023-02-02T06:08:05;14.65;;;1.77;;
42244;SDS011;27912;51.828;5.688;2023-02-02T06:10:30;16.33;;;1.50;;
42244;SDS011;27912;51.828;5.688;2023-02-02T06:12:56;14.93;;;1.20;;
42244;SDS011;27912;51.828;5.688;2023-02-02T06:15:22;13.80;;;1.40;;
42244;SDS011;27912;51.828;5.688;2023-02-02T06:17:48;11.52;;;1.55;;
42244;SDS011;27912;51.828;5.688;2023-02-02T06:20:14;18.70;;;1.75;;
42244;SDS011;27912;51.828;5.688;2023-02-02T06:22:39;10.80;;;1.40;;
42244;SDS011;27912;51.828;5.688;2023-02-02T06:25:06;7.30;;;1.45;;
42244;SDS011;27912;51.828;5.688;2023-02-02T06:27:32;14.88;;;2.33;;
42244;SDS011;27912;51.828;5.688;2023-02-02T06:29:58;17.13;;;1.20;;
42244;SDS011;27912;51.828;5.688;2023-02-02T06:32:23;14.63;;;1.38;;
42244;SDS011;27912;51.828;5.688;2023-02-02T06:34:49;16.33;;;1.40;;
42244;SDS011;27912;51.828;5.688;2023-02-02T06:37:14;8.38;;;1.20;;
42244;SDS011;27912;51.828;5.688;2023-02-02T06:39:40;15.27;;;1.40;;
42244;SDS011;27912;51.828;5.688;2023-02-02T06:42:06;13.98;;;1.00;;
42244;SDS011;27912;51.828;5.688;2023-02-02T06:44:31;16.48;;;0.90;;
42244;SDS011;27912;51.828;5.688;2023-02-02T06:46:57;13.07;;;1.25;;
42244;SDS011;27912;51.828;5.688;2023-02-02T06:49:22;10.05;;;1.25;;
42244;SDS011;27912;51.828;5.688;2023-02-02T06:51:48;21.60;;;1.35;;
42244;SDS011;27912;51.828;5.688;2023-02-02T06:54:14;12.75;;;1.30;;
42244;SDS011;27912;51.828;5.688;2023-02-02T06:56:39;12.10;;;1.60;;
42244;SDS011;27912;51.828;5.688;2023-02-02T06:59:05;9.57;;;0.85;;
42244;SDS011;27912;51.828;5.688;2023-02-02T07:01:31;12.23;;;1.33;;
42244;SDS011;27912;51.828;5.688;2023-02-02T07:03:56;11.88;;;1.00;;
42244;SDS011;27912;51.828;5.688;2023-02-02T07:06:23;13.88;;;1.60;;
42244;SDS011;27912;51.828;5.688;2023-02-02T07:08:51;9.80;;;1.33;;
42244;SDS011;27912;51.828;5.688;2023-02-02T07:11:17;13.50;;;1.58;;
42244;SDS011;27912;51.828;5.688;2023-02-02T07:13:44;14.65;;;2.00;;
42244;SDS011;27912;51.828;5.688;2023-02-02T07:16:11;15.60;;;2.42;;
42244;SDS011;27912;51.828;5.688;2023-02-02T07:18:37;12.73;;;1.73;;
42244;SDS011;27912;51.828;5.688;2023-02-02T07:21:03;11.38;;;1.35;;
42244;SDS011;27912;51.828;5.688;2023-02-02T07:23:30;12.35;;;1.23;;
42244;SDS011;27912;51.828;5.688;2023-02-02T07:26:04;18.88;;;2.17;;
42244;SDS011;27912;51.828;5.688;2023-02-02T07:28:31;13.82;;;2.13;;
42244;SDS011;27912;51.828;5.688;2023-02-02T07:30:57;15.07;;;1.30;;
42244;SDS011;27912;51.828;5.688;2023-02-02T07:33:24;9.20;;;1.70;;
42244;SDS011;27912;51.828;5.688;2023-02-02T07:35:49;19.08;;;2.30;;
42244;SDS011;27912;51.828;5.688;2023-02-02T07:38:15;14.43;;;1.33;;
42244;SDS011;27912;51.828;5.688;2023-02-02T07:40:41;12.98;;;1.73;;
42244;SDS011;27912;51.828;5.688;2023-02-02T07:43:07;13.90;;;1.85;;
42244;SDS011;27912;51.828;5.688;2023-02-02T07:45:33;14.45;;;1.40;;
42244;SDS011;27912;51.828;5.688;2023-02-02T07:48:00;12.82;;;1.85;;
42244;SDS011;27912;51.828;5.688;2023-02-02T07:50:26;13.93;;;1.67;;
42244;SDS011;27912;51.828;5.688;2023-02-02T07:52:53;13.65;;;1.50;;
42244;SDS011;27912;51.828;5.688;2023-02-02T07:55:19;16.17;;;2.45;;
42244;SDS011;27912;51.828;5.688;2023-02-02T07:57:44;10.48;;;1.45;;
42244;SDS011;27912;51.828;5.688;2023-02-02T08:00:10;9.48;;;0.95;;
42244;SDS011;27912;51.828;5.688;2023-02-02T08:02:36;12.10;;;1.88;;
42244;SDS011;27912;51.828;5.688;2023-02-02T08:05:02;13.18;;;1.95;;
42244;SDS011;27912;51.828;5.688;2023-02-02T08:07:28;8.82;;;1.52;;
42244;SDS011;27912;51.828;5.688;2023-02-02T08:09:56;8.35;;;1.83;;
42244;SDS011;27912;51.828;5.688;2023-02-02T08:12:21;10.85;;;1.92;;
42244;SDS011;27912;51.828;5.688;2023-02-02T08:14:48;35.25;;;3.25;;
42244;SDS011;27912;51.828;5.688;2023-02-02T08:17:14;14.88;;;2.05;;
42244;SDS011;27912;51.828;5.688;2023-02-02T08:19:39;9.95;;;1.85;;
42244;SDS011;27912;51.828;5.688;2023-02-02T08:22:05;14.23;;;2.28;;
42244;SDS011;27912;51.828;5.688;2023-02-02T08:24:30;18.45;;;2.15;;
42244;SDS011;27912;51.828;5.688;2023-02-02T08:26:56;14.52;;;1.50;;
42244;SDS011;27912;51.828;5.688;2023-02-02T08:29:21;17.08;;;1.88;;
42244;SDS011;27912;51.828;5.688;2023-02-02T08:31:47;13.55;;;2.22;;
42244;SDS011;27912;51.828;5.688;2023-02-02T08:34:12;20.90;;;2.03;;
42244;SDS011;27912;51.828;5.688;2023-02-02T08:36:38;12.23;;;2.13;;
42244;SDS011;27912;51.828;5.688;2023-02-02T08:39:09;10.02;;;1.48;;
42244;SDS011;27912;51.828;5.688;2023-02-02T08:41:36;18.13;;;1.92;;
42244;SDS011;27912;51.828;5.688;2023-02-02T08:44:06;15.27;;;2.40;;
42244;SDS011;27912;51.828;5.688;2023-02-02T08:46:32;17.27;;;2.03;;
42244;SDS011;27912;51.828;5.688;2023-02-02T08:48:58;10.63;;;1.65;;
42244;SDS011;27912;51.828;5.688;2023-02-02T08:51:24;14.88;;;1.60;;
42244;SDS011;27912;51.828;5.688;2023-02-02T08:53:49;11.07;;;1.58;;
42244;SDS011;27912;51.828;5.688;2023-02-02T08:56:18;16.10;;;2.35;;
42244;SDS011;27912;51.828;5.688;2023-02-02T08:58:46;10.30;;;1.67;;
42244;SDS011;27912;51.828;5.688;2023-02-02T09:01:17;16.45;;;1.73;;
42244;SDS011;27912;51.828;5.688;2023-02-02T09:03:45;11.35;;;2.03;;
42244;SDS011;27912;51.828;5.688;2023-02-02T09:06:12;13.80;;;1.50;;
42244;SDS011;27912;51.828;5.688;2023-02-02T09:08:39;14.57;;;1.85;;
42244;SDS011;27912;51.828;5.688;2023-02-02T09:11:08;16.27;;;2.17;;
42244;SDS011;27912;51.828;5.688;2023-02-02T09:13:36;15.32;;;2.30;;
42244;SDS011;27912;51.828;5.688;2023-02-02T09:16:03;11.95;;;1.20;;
42244;SDS011;27912;51.828;5.688;2023-02-02T09:18:31;17.30;;;1.70;;
42244;SDS011;27912;51.828;5.688;2023-02-02T09:21:04;14.13;;;1.60;;
42244;SDS011;27912;51.828;5.688;2023-02-02T09:23:31;7.80;;;0.88;;
42244;SDS011;27912;51.828;5.688;2023-02-02T09:28:55;13.68;;;1.38;;
42244;SDS011;27912;51.828;5.688;2023-02-02T09:31:22;12.88;;;1.67;;
42244;SDS011;27912;51.828;5.688;2023-02-02T09:33:49;14.15;;;1.02;;
42244;SDS011;27912;51.828;5.688;2023-02-02T09:36:16;18.30;;;1.95;;
42244;SDS011;27912;51.828;5.688;2023-02-02T09:38:44;18.67;;;1.95;;
42244;SDS011;27912;51.828;5.688;2023-02-02T09:52:13;15.75;;;1.60;;
42244;SDS011;27912;51.828;5.688;2023-02-02T09:54:43;9.35;;;1.10;;
42244;SDS011;27912;51.828;5.688;2023-02-02T09:57:21;16.45;;;1.42;;
42244;SDS011;27912;51.828;5.688;2023-02-02T09:59:51;14.45;;;1.65;;
42244;SDS011;27912;51.828;5.688;2023-02-02T10:05:01;15.15;;;2.00;;
42244;SDS011;27912;51.828;5.688;2023-02-02T10:07:41;13.80;;;1.52;;
42244;SDS011;27912;51.828;5.688;2023-02-02T10:10:17;12.90;;;1.33;;
42244;SDS011;27912;51.828;5.688;2023-02-02T10:12:58;13.70;;;1.38;;
42244;SDS011;27912;51.828;5.688;2023-02-02T10:21:27;12.88;;;1.38;;
42244;SDS011;27912;51.828;5.688;2023-02-02T10:24:00;8.77;;;0.98;;
42244;SDS011;27912;51.828;5.688;2023-02-02T10:29:04;15.43;;;1.40;;
42244;SDS011;27912;51.828;5.688;2023-02-02T10:34:51;18.58;;;1.67;;
42244;SDS011;27912;51.828;5.688;2023-02-02T10:37:38;12.63;;;1.30;;
42244;SDS011;27912;51.828;5.688;2023-02-02T10:46:13;15.17;;;1.93;;
42244;SDS011;27912;51.828;5.688;2023-02-02T10:48:48;10.98;;;1.15;;
42244;SDS011;27912;51.828;5.688;2023-02-02T10:51:17;13.98;;;1.00;;
42244;SDS011;27912;51.828;5.688;2023-02-02T10:53:50;16.52;;;1.35;;
42244;SDS011;27912;51.828;5.688;2023-02-02T10:56:18;13.93;;;0.90;;
42244;SDS011;27912;51.828;5.688;2023-02-02T11:01:33;10.77;;;1.30;;
42244;SDS011;27912;51.828;5.688;2023-02-02T11:03:59;10.95;;;1.13;;
42244;SDS011;27912;51.828;5.688;2023-02-02T11:06:43;10.73;;;1.40;;
42244;SDS011;27912;51.828;5.688;2023-02-02T11:09:16;12.90;;;1.15;;
42244;SDS011;27912;51.828;5.688;2023-02-02T11:11:45;11.18;;;1.80;;
42244;SDS011;27912;51.828;5.688;2023-02-02T11:14:16;11.95;;;1.27;;
42244;SDS011;27912;51.828;5.688;2023-02-02T11:17:04;9.27;;;0.90;;
42244;SDS011;27912;51.828;5.688;2023-02-02T11:19:38;17.13;;;1.60;;
42244;SDS011;27912;51.828;5.688;2023-02-02T11:22:04;14.85;;;1.25;;
42244;SDS011;27912;51.828;5.688;2023-02-02T11:27:05;11.20;;;1.92;;
42244;SDS011;27912;51.828;5.688;2023-02-02T11:29:40;9.63;;;1.52;;
42244;SDS011;27912;51.828;5.688;2023-02-02T11:37:31;5.97;;;0.90;;
42244;SDS011;27912;51.828;5.688;2023-02-02T11:40:25;13.32;;;1.35;;
42244;SDS011;27912;51.828;5.688;2023-02-02T11:43:00;11.68;;;1.50;;
42244;SDS011;27912;51.828;5.688;2023-02-02T11:45:36;13.15;;;1.42;;
42244;SDS011;27912;51.828;5.688;2023-02-02T11:48:27;14.80;;;1.40;;
42244;SDS011;27912;51.828;5.688;2023-02-02T11:50:53;19.85;;;1.60;;
42244;SDS011;27912;51.828;5.688;2023-02-02T11:53:21;13.07;;;1.10;;
42244;SDS011;27912;51.828;5.688;2023-02-02T11:55:50;13.40;;;1.98;;
42244;SDS011;27912;51.828;5.688;2023-02-02T11:58:21;14.90;;;1.08;;
42244;SDS011;27912;51.828;5.688;2023-02-02T12:01:00;12.77;;;1.15;;
42244;SDS011;27912;51.828;5.688;2023-02-02T12:03:31;18.92;;;1.70;;
42244;SDS011;27912;51.828;5.688;2023-02-02T12:06:17;12.15;;;1.40;;
42244;SDS011;27912;51.828;5.688;2023-02-02T12:08:45;11.80;;;1.08;;
42244;SDS011;27912;51.828;5.688;2023-02-02T12:11:14;20.10;;;1.35;;
42244;SDS011;27912;51.828;5.688;2023-02-02T12:14:16;14.30;;;1.42;;
42244;SDS011;27912;51.828;5.688;2023-02-02T12:17:09;13.50;;;1.15;;
42244;SDS011;27912;51.828;5.688;2023-02-02T12:30:18;16.85;;;2.35;;
42244;SDS011;27912;51.828;5.688;2023-02-02T12:36:09;18.20;;;1.25;;
42244;SDS011;27912;51.828;5.688;2023-02-02T12:39:47;16.02;;;1.60;;
42244;SDS011;27912;51.828;5.688;2023-02-02T12:42:22;11.85;;;1.38;;
42244;SDS011;27912;51.828;5.688;2023-02-02T12:56:50;8.70;;;1.40;;
42244;SDS011;27912;51.828;5.688;2023-02-02T13:05:13;11.88;;;1.15;;
42244;SDS011;27912;51.828;5.688;2023-02-02T13:08:05;15.73;;;1.15;;
42244;SDS011;27912;51.828;5.688;2023-02-02T13:10:45;11.43;;;0.85;;
42244;SDS011;27912;51.828;5.688;2023-02-02T13:13:16;9.77;;;1.10;;
42244;SDS011;27912;51.828;5.688;2023-02-02T13:15:48;9.00;;;0.98;;
42244;SDS011;27912;51.828;5.688;2023-02-02T13:18:22;10.73;;;1.17;;
42244;SDS011;27912;51.828;5.688;2023-02-02T13:20:57;8.90;;;1.60;;
42244;SDS011;27912;51.828;5.688;2023-02-02T13:23:31;9.00;;;0.93;;
42244;SDS011;27912;51.828;5.688;2023-02-02T13:26:01;11.00;;;0.88;;
42244;SDS011;27912;51.828;5.688;2023-02-02T13:31:00;11.48;;;1.40;;
42244;SDS011;27912;51.828;5.688;2023-02-02T13:33:28;8.40;;;1.25;;
42244;SDS011;27912;51.828;5.688;2023-02-02T13:36:19;6.88;;;1.20;;
42244;SDS011;27912;51.828;5.688;2023-02-02T13:38:52;13.73;;;2.17;;
42244;SDS011;27912;51.828;5.688;2023-02-02T13:41:21;12.40;;;1.75;;
42244;SDS011;27912;51.828;5.688;2023-02-02T13:43:50;15.02;;;2.40;;
42244;SDS011;27912;51.828;5.688;2023-02-02T13:49:18;14.70;;;1.85;;
42244;SDS011;27912;51.828;5.688;2023-02-02T14:00:16;10.00;;;2.08;;
42244;SDS011;27912;51.828;5.688;2023-02-02T14:03:03;16.88;;;3.28;;
42244;SDS011;27912;51.828;5.688;2023-02-02T14:06:00;15.05;;;2.53;;
42244;SDS011;27912;51.828;5.688;2023-02-02T14:08:34;12.13;;;2.22;;
42244;SDS011;27912;51.828;5.688;2023-02-02T14:11:00;14.15;;;2.75;;
42244;SDS011;27912;51.828;5.688;2023-02-02T14:13:42;8.85;;;1.75;;
42244;SDS011;27912;51.828;5.688;2023-02-02T14:19:04;15.70;;;2.55;;
42244;SDS011;27912;51.828;5.688;2023-02-02T14:34:54;11.95;;;2.00;;
42244;SDS011;27912;51.828;5.688;2023-02-02T14:42:50;13.38;;;2.53;;
42244;SDS011;27912;51.828;5.688;2023-02-02T14:46:15;14.15;;;2.85;;
42244;SDS011;27912;51.828;5.688;2023-02-02T14:51:25;11.25;;;2.95;;
42244;SDS011;27912;51.828;5.688;2023-02-02T14:54:00;9.90;;;2.30;;
42244;SDS011;27912;51.828;5.688;2023-02-02T14:56:39;9.40;;;2.60;;
42244;SDS011;27912;51.828;5.688;2023-02-02T14:59:05;10.23;;;2.03;;
42244;SDS011;27912;51.828;5.688;2023-02-02T15:01:38;13.55;;;2.50;;
42244;SDS011;27912;51.828;5.688;2023-02-02T15:06:50;6.65;;;1.92;;
42244;SDS011;27912;51.828;5.688;2023-02-02T15:14:35;13.77;;;2.60;;
42244;SDS011;27912;51.828;5.688;2023-02-02T15:17:08;6.82;;;2.03;;
42244;SDS011;27912;51.828;5.688;2023-02-02T15:19:51;8.57;;;2.05;;
42244;SDS011;27912;51.828;5.688;2023-02-02T15:25:20;6.68;;;1.88;;
42244;SDS011;27912;51.828;5.688;2023-02-02T15:27:55;10.93;;;2.05;;
42244;SDS011;27912;51.828;5.688;2023-02-02T15:30:27;9.70;;;2.10;;
42244;SDS011;27912;51.828;5.688;2023-02-02T15:32:55;8.95;;;2.25;;
42244;SDS011;27912;51.828;5.688;2023-02-02T15:35:25;6.55;;;2.25;;
42244;SDS011;27912;51.828;5.688;2023-02-02T15:37:58;6.32;;;2.97;;
42244;SDS011;27912;51.828;5.688;2023-02-02T15:40:26;6.45;;;2.72;;
42244;SDS011;27912;51.828;5.688;2023-02-02T15:42:56;9.68;;;4.13;;
42244;SDS011;27912;51.828;5.688;2023-02-02T15:48:00;7.53;;;3.50;;
42244;SDS011;27912;51.828;5.688;2023-02-02T15:50:32;9.40;;;5.18;;
42244;SDS011;27912;51.828;5.688;2023-02-02T15:52:58;10.63;;;4.18;;
42244;SDS011;27912;51.828;5.688;2023-02-02T15:55:29;7.75;;;3.80;;
42244;SDS011;27912;51.828;5.688;2023-02-02T15:57:57;9.38;;;2.95;;
42244;SDS011;27912;51.828;5.688;2023-02-02T16:00:24;5.05;;;2.80;;
42244;SDS011;27912;51.828;5.688;2023-02-02T16:03:01;8.68;;;4.22;;
42244;SDS011;27912;51.828;5.688;2023-02-02T16:07:59;13.82;;;4.55;;
42244;SDS011;27912;51.828;5.688;2023-02-02T16:10:25;9.68;;;5.57;;
42244;SDS011;27912;51.828;5.688;2023-02-02T16:12:51;8.50;;;4.72;;
42244;SDS011;27912;51.828;5.688;2023-02-02T16:15:18;11.95;;;4.72;;
42244;SDS011;27912;51.828;5.688;2023-02-02T16:17:56;11.13;;;4.80;;
42244;SDS011;27912;51.828;5.688;2023-02-02T16:20:26;9.32;;;5.45;;
42244;SDS011;27912;51.828;5.688;2023-02-02T16:22:54;12.93;;;4.93;;
42244;SDS011;27912;51.828;5.688;2023-02-02T16:25:25;15.20;;;5.88;;
42244;SDS011;27912;51.828;5.688;2023-02-02T16:27:54;12.35;;;5.80;;
42244;SDS011;27912;51.828;5.688;2023-02-02T16:30:25;10.77;;;6.03;;
42244;SDS011;27912;51.828;5.688;2023-02-02T16:32:56;10.02;;;6.07;;
42244;SDS011;27912;51.828;5.688;2023-02-02T16:35:24;11.80;;;6.20;;
42244;SDS011;27912;51.828;5.688;2023-02-02T16:38:21;15.73;;;6.97;;
42244;SDS011;27912;51.828;5.688;2023-02-02T16:41:00;14.05;;;7.68;;
42244;SDS011;27912;51.828;5.688;2023-02-02T16:43:37;18.80;;;7.50;;
42244;SDS011;27912;51.828;5.688;2023-02-02T16:48:38;14.73;;;7.65;;
42244;SDS011;27912;51.828;5.688;2023-02-02T16:53:59;19.60;;;8.07;;
42244;SDS011;27912;51.828;5.688;2023-02-02T17:01:43;18.05;;;6.18;;
42244;SDS011;27912;51.828;5.688;2023-02-02T17:04:27;22.63;;;5.68;;
42244;SDS011;27912;51.828;5.688;2023-02-02T17:06:56;18.42;;;5.28;;
42244;SDS011;27912;51.828;5.688;2023-02-02T17:11:56;17.20;;;5.40;;
42244;SDS011;27912;51.828;5.688;2023-02-02T17:14:28;21.50;;;6.03;;
42244;SDS011;27912;51.828;5.688;2023-02-02T17:17:13;18.00;;;5.63;;
42244;SDS011;27912;51.828;5.688;2023-02-02T17:19:38;17.25;;;5.10;;
42244;SDS011;27912;51.828;5.688;2023-02-02T17:22:05;15.85;;;5.63;;
42244;SDS011;27912;51.828;5.688;2023-02-02T17:24:31;23.83;;;5.15;;
42244;SDS011;27912;51.828;5.688;2023-02-02T17:26:57;19.23;;;5.60;;
42244;SDS011;27912;51.828;5.688;2023-02-02T17:29:23;25.52;;;6.00;;
42244;SDS011;27912;51.828;5.688;2023-02-02T17:31:49;21.67;;;5.78;;
42244;SDS011;27912;51.828;5.688;2023-02-02T17:34:15;19.58;;;5.38;;